x

Venice, Fl (venf1) Weather Station

8:00am - Tue 22nd May 2018 All times are EDT. -4 hours from GMT.

  • Wind
    8mph, 9mph gusts
  • Sea Temp 79°f
  • Air Temp 73°f
  • Sea Pressure 1017.6mb
  • Venice, Fl
  • Venice, Fl

More Historic Weather Station data

Upgrade to MSW Pro to gain access to the past 30 days of data for over 8000 Wavebouys and Weather Stations around the globe.

Join

Comparision Forecast

View Surf forecast
   
Tue 05/22 8:00am 8 9 mph 1017.6mb 79f 73f
7:00am 7 8 mph 1017mb 79f 72f
6:00am 7 8 mph 1016.5mb 79f 72f
5:00am 6 8 mph 1016.3mb 79f 73f
4:00am 6 8 mph 1016.2mb 79f 73f
3:00am 7 7 mph 1016.6mb 79f 73f
2:00am 6 7 mph 1016.8mb 79f 73f
1:00am 6 7 mph 1017.3mb 79f 74f
12:00am 5 6 mph 1017.9mb 79f 75f
Mon 05/21 11:00pm 5 6 mph 1017.9mb 80f 75f
10:00pm 5 6 mph 1017.6mb 80f 76f
9:00pm 5 6 mph 1017.2mb 80f 77f
8:00pm 6 8 mph 1016.7mb 80f 79f
7:00pm 7 10 mph 1016.2mb 80f 78f
6:00pm 9 10 mph 1016.4mb 80f 77f
5:00pm 10 14 mph 1016.4mb 80f 76f
4:00pm 16 20 mph 1016.7mb 80f 74f
3:00pm 13 14 mph 1016.9mb 79f 75f
2:00pm 7 8 mph 1017mb 79f 77f
1:00pm 6 7 mph 1017.4mb 79f 78f
12:00pm 10 13 mph 1017.9mb 79f 76f
11:00am 11 16 mph 1018mb 79f 80f
10:00am 13 15 mph 1017.9mb 79f 78f
9:00am 11 15 mph 1017.5mb 79f 76f
8:00am 10 13 mph 1016.9mb 79f 74f
7:00am 9 11 mph 1016.6mb 79f 72f
6:00am 8 10 mph 1016.2mb 79f 72f
5:00am 6 8 mph 1016mb 79f 73f
4:00am 8 9 mph 1016.2mb 79f 73f
3:00am 8 10 mph 1016.6mb 79f 73f
2:00am 8 11 mph 1016.9mb 79f 73f
1:00am 5 6 mph 1017.4mb 79f 73f
12:00am 8 9 mph 1017.8mb 79f 73f
Sun 05/20 11:00pm 8 10 mph 1017.9mb 79f 74f
10:00pm 8 9 mph 1017.7mb 79f 74f
9:00pm 7 9 mph 1017.5mb 79f 75f
8:00pm 8 10 mph 1016.8mb 79f 75f
7:00pm 5 7 mph 1017mb 79f 75f
6:00pm 7 10 mph 1016.9mb 79f 75f
5:00pm 9 14 mph 1017mb 79f 74f
4:00pm 17 22 mph 1017.3mb 79f 76f
3:00pm 10 11 mph 1017.3mb 79f 78f
2:00pm 10 11 mph 1017.4mb 79f 78f
1:00pm 3 6 mph 1017.7mb 79f 78f
12:00pm 6 8 mph 1018.2mb 79f 76f
11:00am 9 11 mph 1018.4mb 78f 75f
10:00am 8 9 mph 1018.3mb 78f 72f
9:00am 9 13 mph 1018mb 79f 71f
8:00am 8 9 mph 1017.8mb 79f 71f
7:00am 8 10 mph 1017.3mb 79f 70f
6:00am 8 9 mph 1017mb 79f 70f
5:00am 7 10 mph 1017.2mb 79f 70f
4:00am 8 10 mph 1017.3mb 79f 71f
3:00am 6 8 mph 1016.8mb 79f 71f
2:00am 5 7 mph 1017.3mb 79f 71f
1:00am 7 8 mph 1018mb 79f 72f
12:00am 6 6 mph 1018.2mb 79f 73f
Sat 05/19 11:00pm 8 10 mph 1017.8mb 79f 73f
10:00pm 9 13 mph 1017.6mb 79f 73f
9:00pm 5 7 mph 1017.2mb 79f 72f
8:00pm 6 8 mph 1016.8mb 79f 71f
7:00pm 7 7 mph 1017.3mb 79f 70f
6:00pm 7 8 mph 1017.3mb 79f 70f
5:00pm 2 3 mph 1016.6mb 79f 79f
4:00pm 7 8 mph 1016.1mb 79f 80f
3:00pm 7 7 mph 1016.6mb 79f 80f
2:00pm 8 9 mph 1016.9mb 79f 80f
1:00pm 8 8 mph 1017.2mb 78f 79f
12:00pm 7 7 mph 1017.6mb 78f 79f
11:00am 3 6 mph 1017.7mb 78f 80f
10:00am 3 5 mph 1017.5mb 78f 77f
9:00am 5 6 mph 1017.2mb 78f 74f
8:00am 5 6 mph 1016.9mb 78f 72f
7:00am 5 7 mph 1016.4mb 79f 71f
6:00am 6 7 mph 1015.9mb 79f 71f
5:00am 6 7 mph 1015.3mb 79f 71f
4:00am 5 6 mph 1015mb 79f 72f
3:00am 3 5 mph 1015.2mb 79f 72f
2:00am 1 2 mph 1015.7mb 79f 73f
1:00am 3 5 mph 1016mb 79f 74f
12:00am 5 6 mph 1016.2mb 79f 76f
Fri 05/18 11:00pm 5 5 mph 1016mb 78f 76f
10:00pm 2 2 mph 1015.6mb 78f 77f
9:00pm 1 1 mph 1015.1mb 78f 78f
8:00pm 3 5 mph 1014.5mb 78f 78f
7:00pm 8 9 mph 1014.1mb 78f 78f
6:00pm 8 8 mph 1014.2mb 78f 79f
5:00pm 9 9 mph 1013.9mb 78f 79f
4:00pm 10 11 mph 1013.9mb 78f 78f
3:00pm 11 13 mph 1014.4mb 78f 78f
2:00pm 11 13 mph 1015.4mb 78f 78f